createdAt,value
2023-03-28T00:01:37.618Z,-1.24
2023-03-28T00:04:07.443Z,-1.35
2023-03-28T00:06:38.533Z,-1.42
2023-03-28T00:09:08.325Z,-1.38
2023-03-28T00:11:37.916Z,-1.31
2023-03-28T00:14:08.499Z,-1.33
2023-03-28T00:16:41.917Z,-1.30
2023-03-28T00:19:13.551Z,-1.29
2023-03-28T00:21:47.180Z,-1.28
2023-03-28T00:24:18.922Z,-1.28
2023-03-28T00:26:54.824Z,-1.26
2023-03-28T00:29:26.270Z,-1.31
2023-03-28T00:31:58.779Z,-1.33
2023-03-28T00:34:28.912Z,-1.31
2023-03-28T00:36:58.624Z,-1.34
2023-03-28T00:39:29.666Z,-1.37
2023-03-28T00:41:59.315Z,-1.41
2023-03-28T00:44:46.078Z,-1.40
2023-03-28T00:47:28.518Z,-1.41
2023-03-28T00:50:03.191Z,-1.43
2023-03-28T00:52:39.257Z,-1.42
2023-03-28T00:55:13.019Z,-1.36
2023-03-28T00:57:43.321Z,-1.36
2023-03-28T01:00:17.876Z,-1.37
2023-03-28T01:02:53.461Z,-1.32
2023-03-28T01:05:29.277Z,-1.32
2023-03-28T01:08:02.842Z,-1.31
2023-03-28T01:10:34.809Z,-1.25
2023-03-28T01:13:05.806Z,-1.15
2023-03-28T01:15:35.602Z,-1.02
2023-03-28T01:18:11.757Z,-0.95
2023-03-28T01:21:24.560Z,-0.90
2023-03-28T01:24:33.900Z,-0.81
2023-03-28T01:27:09.948Z,-0.74
2023-03-28T01:30:15.578Z,-0.71
2023-03-28T01:33:11.921Z,-0.77
2023-03-28T01:36:09.921Z,-0.77
2023-03-28T01:38:50.128Z,-0.75
2023-03-28T01:41:26.006Z,-0.74
2023-03-28T01:44:07.308Z,-0.65
2023-03-28T01:46:41.753Z,-0.62
2023-03-28T01:49:18.314Z,-0.59
2023-03-28T01:51:55.502Z,-0.57
2023-03-28T01:54:33.482Z,-0.58
2023-03-28T01:57:10.683Z,-0.59
2023-03-28T01:59:44.300Z,-0.58
2023-03-28T02:02:20.790Z,-0.58
2023-03-28T02:04:52.929Z,-0.58
2023-03-28T02:07:29.054Z,-0.55
2023-03-28T02:10:01.924Z,-0.54
2023-03-28T02:12:38.148Z,-0.55
2023-03-28T02:15:09.046Z,-0.54
2023-03-28T02:17:45.619Z,-0.49
2023-03-28T02:20:19.950Z,-0.46
2023-03-28T02:22:54.179Z,-0.46
2023-03-28T02:25:26.497Z,-0.45
2023-03-28T02:28:01.431Z,-0.46
2023-03-28T02:30:31.021Z,-0.46
2023-03-28T02:33:04.078Z,-0.43
2023-03-28T02:35:49.758Z,-0.41
2023-03-28T02:38:29.851Z,-0.41
2023-03-28T02:41:10.454Z,-0.40
2023-03-28T02:43:59.047Z,-0.38
2023-03-28T02:46:33.160Z,-0.44
2023-03-28T02:49:25.677Z,-0.46
2023-03-28T02:52:09.432Z,-0.50
2023-03-28T02:54:44.763Z,-0.54
2023-03-28T02:57:21.444Z,-0.57
2023-03-28T02:59:56.841Z,-0.61
2023-03-28T03:02:29.248Z,-0.62
2023-03-28T03:05:01.998Z,-0.60
2023-03-28T03:07:32.294Z,-0.60
2023-03-28T03:10:01.932Z,-0.65
2023-03-28T03:12:34.040Z,-0.65
2023-03-28T03:15:04.229Z,-0.63
2023-03-28T03:17:33.835Z,-0.62
2023-03-28T03:20:07.036Z,-0.59
2023-03-28T03:22:37.380Z,-0.57
2023-03-28T03:25:08.394Z,-0.53
2023-03-28T03:27:41.212Z,-0.50
2023-03-28T03:30:12.111Z,-0.47
2023-03-28T03:32:44.224Z,-0.47
2023-03-28T03:35:14.272Z,-0.44
2023-03-28T03:37:44.053Z,-0.39
2023-03-28T03:40:14.206Z,-0.36
2023-03-28T03:42:46.326Z,-0.33
2023-03-28T03:45:15.981Z,-0.31
2023-03-28T03:47:45.606Z,-0.29
2023-03-28T03:50:15.407Z,-0.28
2023-03-28T03:52:44.945Z,-0.30
2023-03-28T03:55:14.680Z,-0.33
2023-03-28T03:57:46.787Z,-0.33
2023-03-28T04:00:17.404Z,-0.32
2023-03-28T04:02:47.040Z,-0.32
2023-03-28T04:05:17.068Z,-0.30
2023-03-28T04:07:46.710Z,-0.29
2023-03-28T04:10:16.266Z,-0.41
2023-03-28T04:12:48.486Z,-0.64
2023-03-28T04:15:18.254Z,-0.80
2023-03-28T04:17:50.413Z,-0.91
2023-03-28T04:20:21.168Z,-0.91
2023-03-28T04:22:50.756Z,-0.91
2023-03-28T04:25:20.575Z,-0.91
2023-03-28T04:27:54.781Z,-0.84
2023-03-28T04:30:26.003Z,-0.82
2023-03-28T04:32:55.672Z,-0.79
2023-03-28T04:35:26.416Z,-0.79
2023-03-28T04:37:58.027Z,-0.77
2023-03-28T04:40:28.337Z,-0.69
2023-03-28T04:43:00.479Z,-0.65
2023-03-28T04:45:30.225Z,-0.68
2023-03-28T04:47:59.818Z,-0.74
2023-03-28T04:50:29.373Z,-0.86
2023-03-28T04:52:58.885Z,-0.89
2023-03-28T04:55:28.791Z,-0.87
2023-03-28T04:58:01.091Z,-0.88
2023-03-28T05:00:30.779Z,-0.86
2023-03-28T05:03:05.149Z,-1.01
2023-03-28T05:05:35.496Z,-1.13
2023-03-28T05:08:05.263Z,-1.24
2023-03-28T05:10:34.838Z,-1.27
2023-03-28T05:13:07.160Z,-1.30
2023-03-28T05:15:36.765Z,-1.30
2023-03-28T05:18:07.085Z,-1.21
2023-03-28T05:20:36.881Z,-1.11
2023-03-28T05:23:07.495Z,-1.01
2023-03-28T05:25:37.360Z,-0.95
2023-03-28T05:28:09.633Z,-0.87
2023-03-28T05:30:39.180Z,-0.80
2023-03-28T05:33:08.806Z,-0.68
2023-03-28T05:35:39.378Z,-0.63
2023-03-28T05:38:09.217Z,-0.57
2023-03-28T05:40:39.807Z,-0.59
2023-03-28T05:43:11.939Z,-0.69
2023-03-28T05:45:42.005Z,-0.79
2023-03-28T05:48:11.632Z,-0.81
2023-03-28T05:50:41.280Z,-0.71
2023-03-28T05:53:10.962Z,-0.66
2023-03-28T05:55:40.623Z,-0.59
2023-03-28T05:58:13.061Z,-0.57
2023-03-28T06:00:42.896Z,-0.48
2023-03-28T06:03:16.469Z,-0.41
2023-03-28T06:05:47.430Z,-0.34
2023-03-28T06:08:16.988Z,-0.29
2023-03-28T06:10:46.775Z,-0.32
2023-03-28T06:13:19.714Z,-0.30
2023-03-28T06:15:49.290Z,-0.36
2023-03-28T06:18:18.802Z,-0.28
2023-03-28T06:20:48.459Z,-0.19
2023-03-28T06:23:17.985Z,0.01
2023-03-28T06:25:47.809Z,0.03
2023-03-28T06:28:19.981Z,-0.02
2023-03-28T06:30:51.797Z,-0.01
2023-03-28T06:33:21.374Z,-0.03
2023-03-28T06:35:51.681Z,-0.03
2023-03-28T06:38:21.559Z,-0.11
2023-03-28T06:40:51.131Z,-0.15
2023-03-28T06:43:23.255Z,-0.19
2023-03-28T06:45:52.831Z,-0.19
2023-03-28T06:48:22.451Z,-0.17
2023-03-28T06:50:52.825Z,0.01
2023-03-28T06:53:22.760Z,0.06
2023-03-28T06:55:52.689Z,0.05
2023-03-28T06:58:26.217Z,0.12
2023-03-28T07:00:56.332Z,0.07
2023-03-28T07:03:25.930Z,0.08
2023-03-28T07:05:55.690Z,0.16
2023-03-28T07:08:25.746Z,0.18
2023-03-28T07:10:55.305Z,0.23
2023-03-28T07:13:27.446Z,0.58
2023-03-28T07:16:04.148Z,0.75
2023-03-28T07:18:33.840Z,0.92
2023-03-28T07:21:09.586Z,1.07
2023-03-28T07:23:39.506Z,1.71
2023-03-28T07:26:10.046Z,2.70
2023-03-28T07:28:42.487Z,4.21
2023-03-28T07:31:12.454Z,4.13
2023-03-28T07:33:42.443Z,4.50
2023-03-28T07:36:14.785Z,4.48
2023-03-28T07:38:47.278Z,5.60
2023-03-28T07:41:18.313Z,5.29
2023-03-28T07:43:50.432Z,4.73
2023-03-28T07:46:21.189Z,5.08
2023-03-28T07:48:50.834Z,5.49
2023-03-28T07:51:20.702Z,5.79
2023-03-28T07:53:50.562Z,4.33
2023-03-28T07:56:20.173Z,4.22
2023-03-28T07:58:52.264Z,3.70
2023-03-28T08:01:23.027Z,3.27
2023-03-28T08:03:52.987Z,3.34
2023-03-28T08:06:32.180Z,3.16
2023-03-28T08:09:02.567Z,3.16
2023-03-28T08:11:32.108Z,4.05
2023-03-28T08:14:04.472Z,4.96
2023-03-28T08:16:34.676Z,4.87
2023-03-28T08:21:39.507Z,4.32
2023-03-28T08:24:12.906Z,3.71
2023-03-28T08:26:46.733Z,3.52
2023-03-28T08:29:20.842Z,3.21
2023-03-28T08:31:50.851Z,3.07
2023-03-28T08:34:20.537Z,3.31
2023-03-28T08:36:50.148Z,3.42
2023-03-28T08:39:19.672Z,3.26
2023-03-28T08:42:06.353Z,3.24
2023-03-28T08:44:53.742Z,3.07
2023-03-28T08:47:28.310Z,3.06
2023-03-28T08:50:05.558Z,3.90
2023-03-28T08:52:35.557Z,6.09
2023-03-28T08:55:09.080Z,6.81
2023-03-28T08:57:39.242Z,6.68
2023-03-28T09:00:19.592Z,6.91
2023-03-28T09:02:51.786Z,6.86
2023-03-28T09:05:35.017Z,7.89
2023-03-28T09:08:19.785Z,7.00
2023-03-28T09:10:56.053Z,5.13
2023-03-28T09:13:38.983Z,4.55
2023-03-28T09:16:39.945Z,3.34
2023-03-28T09:19:34.199Z,2.87
2023-03-28T09:22:21.951Z,4.50
2023-03-28T09:25:08.566Z,5.89
2023-03-28T09:27:38.711Z,5.49
2023-03-28T09:30:20.915Z,1.82
2023-03-28T09:32:58.480Z,0.65
2023-03-28T09:35:30.600Z,0.60
2023-03-28T09:38:05.434Z,0.41
2023-03-28T09:40:36.704Z,0.32
2023-03-28T09:43:18.241Z,0.36
2023-03-28T09:45:54.933Z,0.53
2023-03-28T09:48:31.170Z,1.57
2023-03-28T09:51:00.991Z,2.87
2023-03-28T09:53:33.308Z,3.52
2023-03-28T09:56:06.096Z,3.98
2023-03-28T09:58:54.082Z,4.58
2023-03-28T10:01:32.913Z,3.98
2023-03-28T10:04:05.203Z,3.43
2023-03-28T10:06:35.010Z,3.58
2023-03-28T10:09:21.072Z,4.62
2023-03-28T10:11:54.644Z,6.07
2023-03-28T10:14:35.870Z,6.62
2023-03-28T10:17:08.382Z,5.00
2023-03-28T10:19:44.804Z,4.37
2023-03-28T10:22:17.844Z,5.26
2023-03-28T10:24:48.894Z,5.89
2023-03-28T10:27:24.134Z,6.02
2023-03-28T10:29:55.074Z,5.95
2023-03-28T10:32:29.943Z,6.31
2023-03-28T10:35:10.116Z,6.11
2023-03-28T10:37:39.728Z,6.52
2023-03-28T10:40:26.436Z,6.23
2023-03-28T10:42:56.108Z,5.46
2023-03-28T10:45:33.313Z,4.76
2023-03-28T10:48:06.972Z,5.56
2023-03-28T10:50:44.936Z,6.76
2023-03-28T10:53:35.326Z,7.60
2023-03-28T10:56:14.658Z,7.05
2023-03-28T10:58:53.429Z,7.47
2023-03-28T11:01:25.116Z,6.00
2023-03-28T11:04:21.387Z,4.94
2023-03-28T11:07:01.948Z,4.30
2023-03-28T11:09:42.521Z,3.66
2023-03-28T11:12:28.582Z,3.46
2023-03-28T11:15:09.028Z,3.93
2023-03-28T11:17:48.886Z,4.64
2023-03-28T11:20:38.660Z,4.96
2023-03-28T11:23:43.516Z,4.96
2023-03-28T11:26:19.038Z,6.66
2023-03-28T11:29:08.997Z,6.65
2023-03-28T11:31:43.986Z,5.58
2023-03-28T11:34:22.966Z,4.62
2023-03-28T11:36:56.662Z,4.75
2023-03-28T11:39:38.935Z,4.74
2023-03-28T11:42:18.476Z,4.05
2023-03-28T11:45:03.614Z,3.05
2023-03-28T11:47:39.837Z,1.98
2023-03-28T11:50:15.361Z,1.66
2023-03-28T11:52:50.891Z,2.00
2023-03-28T11:55:23.833Z,2.02
2023-03-28T11:58:00.011Z,2.02
2023-03-28T12:00:34.613Z,1.66
2023-03-28T12:03:17.194Z,2.13
2023-03-28T12:05:57.796Z,2.34
2023-03-28T12:08:37.630Z,2.21
2023-03-28T12:11:10.821Z,2.55
2023-03-28T12:13:55.443Z,2.80
2023-03-28T12:16:40.709Z,3.07
2023-03-28T12:19:17.785Z,2.86
2023-03-28T12:21:52.743Z,2.42
2023-03-28T12:24:30.063Z,2.27
2023-03-28T12:27:09.491Z,2.61
2023-03-28T12:29:47.398Z,2.54
2023-03-28T12:32:39.354Z,2.61
2023-03-28T12:35:18.119Z,2.43
2023-03-28T12:38:05.509Z,2.48
2023-03-28T12:40:52.276Z,2.77
2023-03-28T12:43:26.198Z,2.72
2023-03-28T12:46:02.901Z,2.82
2023-03-28T12:48:39.705Z,2.84
2023-03-28T12:51:16.565Z,2.82
2023-03-28T12:53:49.039Z,3.14
2023-03-28T12:56:19.179Z,3.68
2023-03-28T12:58:49.581Z,3.86
2023-03-28T13:01:35.914Z,4.04
2023-03-28T13:04:16.764Z,4.00
2023-03-28T13:06:53.260Z,4.44
2023-03-28T13:09:35.598Z,4.31
2023-03-28T13:12:13.201Z,3.92
2023-03-28T13:14:44.301Z,3.86
2023-03-28T13:17:24.522Z,3.79
2023-03-28T13:19:56.048Z,1.78
2023-03-28T13:22:35.024Z,1.02
2023-03-28T13:25:27.500Z,0.68
2023-03-28T13:28:00.834Z,0.89
2023-03-28T13:30:32.442Z,0.88
2023-03-28T13:33:19.357Z,1.13
2023-03-28T13:35:50.536Z,1.26
2023-03-28T13:38:35.134Z,1.14
2023-03-28T13:41:07.087Z,1.01
2023-03-28T13:43:44.992Z,1.19
2023-03-28T13:46:16.822Z,1.37
2023-03-28T13:48:55.103Z,1.65
2023-03-28T13:51:27.573Z,1.89
2023-03-28T13:53:57.208Z,1.88
2023-03-28T13:56:28.681Z,2.06
2023-03-28T13:59:01.465Z,2.28
2023-03-28T14:01:38.100Z,2.50
2023-03-28T14:04:19.058Z,2.43
2023-03-28T14:06:48.778Z,2.46
2023-03-28T14:09:22.889Z,2.62
2023-03-28T14:11:53.259Z,2.74
2023-03-28T14:14:31.546Z,2.85
2023-03-28T14:17:04.130Z,2.80
2023-03-28T14:19:43.177Z,2.76
2023-03-28T14:22:18.011Z,2.73
2023-03-28T14:24:49.841Z,2.81
2023-03-28T14:27:31.889Z,3.26
2023-03-28T14:30:02.554Z,3.50
2023-03-28T14:32:36.304Z,3.37
2023-03-28T14:35:24.716Z,3.35
2023-03-28T14:37:56.132Z,3.57
2023-03-28T14:40:35.700Z,3.66
2023-03-28T14:43:10.227Z,3.80
2023-03-28T14:45:42.735Z,4.05
2023-03-28T14:48:19.248Z,4.29
2023-03-28T14:50:53.534Z,4.42
2023-03-28T14:53:25.062Z,3.91
2023-03-28T14:55:56.785Z,3.53
2023-03-28T14:58:28.583Z,3.53
2023-03-28T15:01:02.254Z,3.69
2023-03-28T15:03:39.172Z,3.65
2023-03-28T15:06:18.284Z,3.59
2023-03-28T15:08:48.413Z,3.66
2023-03-28T15:11:22.468Z,3.69
2023-03-28T15:13:53.776Z,3.47
2023-03-28T15:16:26.967Z,3.22
2023-03-28T15:19:07.082Z,3.19
2023-03-28T15:21:41.370Z,2.98
2023-03-28T15:24:14.561Z,3.01
2023-03-28T15:26:47.058Z,2.89
2023-03-28T15:29:20.321Z,2.79
2023-03-28T15:31:50.678Z,2.65
2023-03-28T15:34:26.972Z,2.77
2023-03-28T15:37:01.566Z,2.73
2023-03-28T15:39:33.152Z,2.69
2023-03-28T15:42:04.154Z,2.77
2023-03-28T15:44:36.068Z,2.69
2023-03-28T15:47:08.325Z,2.75
2023-03-28T15:49:39.752Z,2.69
2023-03-28T15:52:22.378Z,2.67
2023-03-28T15:54:54.605Z,2.62
2023-03-28T15:57:25.811Z,2.63
2023-03-28T15:59:56.387Z,2.63
2023-03-28T16:02:37.524Z,2.55
2023-03-28T16:05:09.192Z,2.59
2023-03-28T16:07:51.621Z,2.51
2023-03-28T16:10:23.048Z,2.49
2023-03-28T16:12:53.343Z,2.42
2023-03-28T16:15:24.038Z,2.37
2023-03-28T16:17:55.736Z,2.35
2023-03-28T16:20:26.431Z,2.33
2023-03-28T16:22:58.562Z,2.28
2023-03-28T16:25:28.622Z,2.26
2023-03-28T16:27:58.529Z,2.17
2023-03-28T16:30:31.012Z,2.13
2023-03-28T16:33:01.224Z,2.08
2023-03-28T16:35:31.351Z,2.04
2023-03-28T16:38:03.939Z,1.98
2023-03-28T16:40:33.944Z,1.97
2023-03-28T16:43:03.556Z,1.91
2023-03-28T16:45:33.582Z,1.85
2023-03-28T16:48:03.196Z,1.79
2023-03-28T16:50:32.803Z,1.71
2023-03-28T16:53:06.729Z,1.61
2023-03-28T16:55:36.538Z,1.58
2023-03-28T16:58:06.773Z,1.47
2023-03-28T17:00:36.462Z,1.36
2023-03-28T17:03:06.148Z,1.24
2023-03-28T17:05:38.404Z,1.23
2023-03-28T17:08:10.743Z,1.08
2023-03-28T17:10:42.980Z,1.07
2023-03-28T17:13:12.682Z,0.94
2023-03-28T17:15:42.579Z,0.82
2023-03-28T17:18:12.360Z,0.75
2023-03-28T17:20:41.911Z,0.66
2023-03-28T17:23:14.087Z,0.50
2023-03-28T17:25:53.913Z,0.35
2023-03-28T17:28:24.506Z,0.14
2023-03-28T17:30:54.202Z,0.02
2023-03-28T17:33:24.719Z,-0.01
2023-03-28T17:35:54.489Z,-0.16
2023-03-28T17:38:26.687Z,-0.34
2023-03-28T17:40:56.224Z,-0.52
2023-03-28T17:43:25.808Z,-0.60
2023-03-28T17:45:56.686Z,-0.68
2023-03-28T17:48:26.225Z,-0.73
2023-03-28T17:50:56.226Z,-0.79
2023-03-28T17:53:28.420Z,-0.84
2023-03-28T17:55:59.137Z,-0.90
2023-03-28T17:58:28.838Z,-1.05
2023-03-28T18:00:59.010Z,-1.14
2023-03-28T18:03:28.836Z,-1.21
2023-03-28T18:06:00.682Z,-1.32
2023-03-28T18:08:33.440Z,-1.38
2023-03-28T18:11:03.679Z,-1.56
2023-03-28T18:13:33.214Z,-1.71
2023-03-28T18:16:04.540Z,-1.69
2023-03-28T18:18:34.701Z,-1.74
2023-03-28T18:21:04.487Z,-1.79
2023-03-28T18:23:37.021Z,-1.69
2023-03-28T18:26:06.912Z,-1.82
2023-03-28T18:28:36.956Z,-1.99
2023-03-28T18:31:11.066Z,-2.00
2023-03-28T18:33:41.343Z,-2.03
2023-03-28T18:36:12.312Z,-2.05
2023-03-28T18:38:46.730Z,-1.98
2023-03-28T18:41:16.693Z,-1.90
2023-03-28T18:43:46.361Z,-1.98
2023-03-28T18:46:16.351Z,-2.09
2023-03-28T18:48:46.706Z,-2.17
2023-03-28T18:51:16.328Z,-2.28
2023-03-28T18:53:48.486Z,-2.38
2023-03-28T18:56:18.630Z,-2.45
2023-03-28T18:58:50.467Z,-2.58
2023-03-28T19:01:20.746Z,-2.66
2023-03-28T19:03:50.690Z,-2.68
2023-03-28T19:06:20.416Z,-2.67
2023-03-28T19:08:54.058Z,-2.59
2023-03-28T19:11:23.699Z,-2.61
2023-03-28T19:13:53.258Z,-2.60
2023-03-28T19:16:22.898Z,-2.52
2023-03-28T19:18:52.502Z,-2.44
2023-03-28T19:21:22.156Z,-2.42
2023-03-28T19:23:54.311Z,-2.49
2023-03-28T19:26:24.098Z,-2.60
2023-03-28T19:28:53.754Z,-2.59
2023-03-28T19:31:24.855Z,-2.68
2023-03-28T19:33:54.498Z,-2.81
2023-03-28T19:36:24.131Z,-2.93
2023-03-28T19:38:56.362Z,-3.03
2023-03-28T19:41:27.594Z,-3.17
2023-03-28T19:43:57.931Z,-3.24
2023-03-28T19:46:33.102Z,-3.28
2023-03-28T19:49:07.140Z,-3.29
2023-03-28T19:51:37.179Z,-3.19
2023-03-28T19:54:09.390Z,-3.13
2023-03-28T19:56:39.049Z,-3.08
2023-03-28T19:59:08.693Z,-2.84
2023-03-28T20:01:38.389Z,-2.80
2023-03-28T20:04:08.568Z,-2.85
2023-03-28T20:06:38.187Z,-2.81
2023-03-28T20:09:10.429Z,-2.78
2023-03-28T20:11:42.221Z,-2.83
2023-03-28T20:14:17.179Z,-2.94
2023-03-28T20:16:46.728Z,-2.85
2023-03-28T20:19:18.268Z,-2.84
2023-03-28T20:21:49.381Z,-2.85
2023-03-28T20:24:21.508Z,-2.95
2023-03-28T20:26:51.552Z,-3.01
2023-03-28T20:29:21.815Z,-3.05
2023-03-28T20:31:51.589Z,-3.00
2023-03-28T20:34:21.280Z,-2.97
2023-03-28T20:36:50.814Z,-2.90
2023-03-28T20:39:26.336Z,-2.87
2023-03-28T20:41:56.053Z,-2.94
2023-03-28T20:44:30.028Z,-3.03
2023-03-28T20:47:00.234Z,-3.10
2023-03-28T20:49:29.827Z,-3.13
2023-03-28T20:51:59.402Z,-3.25
2023-03-28T20:54:31.750Z,-3.29
2023-03-28T20:57:01.629Z,-3.24
2023-03-28T20:59:32.276Z,-3.28
2023-03-28T21:02:02.294Z,-3.35
2023-03-28T21:04:32.245Z,-3.46
2023-03-28T21:07:02.555Z,-3.63
2023-03-28T21:09:34.642Z,-3.77
2023-03-28T21:12:04.148Z,-3.90
2023-03-28T21:14:33.657Z,-3.96
2023-03-28T21:17:07.473Z,-4.02
2023-03-28T21:19:37.412Z,-4.00
2023-03-28T21:22:07.205Z,-3.91
2023-03-28T21:24:39.338Z,-3.84
2023-03-28T21:27:08.919Z,-3.88
2023-03-28T21:29:39.067Z,-3.79
2023-03-28T21:32:08.923Z,-3.70
2023-03-28T21:34:39.196Z,-3.70
2023-03-28T21:37:08.840Z,-3.77
2023-03-28T21:39:41.101Z,-3.82
2023-03-28T21:42:10.643Z,-3.68
2023-03-28T21:44:40.226Z,-3.44
2023-03-28T21:47:10.505Z,-3.49
2023-03-28T21:49:40.266Z,-3.70
2023-03-28T21:52:09.795Z,-3.82
2023-03-28T21:54:41.995Z,-3.78
2023-03-28T21:57:11.562Z,-3.69
2023-03-28T21:59:41.463Z,-3.65
2023-03-28T22:02:11.237Z,-3.79
2023-03-28T22:04:41.213Z,-3.71
2023-03-28T22:07:10.939Z,-3.59
2023-03-28T22:09:44.715Z,-3.45
2023-03-28T22:12:14.999Z,-3.37
2023-03-28T22:14:44.609Z,-3.28
2023-03-28T22:17:14.121Z,-3.18
2023-03-28T22:19:43.947Z,-3.19
2023-03-28T22:22:13.806Z,-3.16
2023-03-28T22:24:46.273Z,-3.19
2023-03-28T22:27:16.580Z,-3.23
2023-03-28T22:29:46.122Z,-3.45
2023-03-28T22:32:15.722Z,-3.66
2023-03-28T22:34:45.272Z,-3.79
2023-03-28T22:37:15.490Z,-3.90
2023-03-28T22:39:47.828Z,-4.00
2023-03-28T22:42:17.692Z,-4.05
2023-03-28T22:44:48.341Z,-4.09
2023-03-28T22:47:18.190Z,-4.15
2023-03-28T22:49:48.410Z,-4.22
2023-03-28T22:52:19.587Z,-4.28
2023-03-28T22:54:52.975Z,-4.33
2023-03-28T22:57:22.550Z,-4.35
2023-03-28T22:59:53.321Z,-4.40
2023-03-28T23:02:22.913Z,-4.48
2023-03-28T23:04:54.332Z,-4.52
2023-03-28T23:07:24.339Z,-4.53
2023-03-28T23:09:56.964Z,-4.55
2023-03-28T23:12:26.505Z,-4.60
2023-03-28T23:14:56.651Z,-4.61
2023-03-28T23:17:26.581Z,-4.71
2023-03-28T23:19:56.202Z,-4.82
2023-03-28T23:22:25.858Z,-4.93
2023-03-28T23:24:57.982Z,-5.04
2023-03-28T23:27:27.675Z,-5.12
2023-03-28T23:29:57.247Z,-5.19
2023-03-28T23:32:26.777Z,-5.16
2023-03-28T23:34:56.822Z,-5.18
2023-03-28T23:37:27.723Z,-5.25
2023-03-28T23:40:00.331Z,-5.26
2023-03-28T23:42:29.835Z,-5.28
2023-03-28T23:44:59.454Z,-5.23
2023-03-28T23:47:29.061Z,-5.25
2023-03-28T23:49:58.666Z,-5.21
2023-03-28T23:52:28.219Z,-5.26
2023-03-28T23:55:00.317Z,-5.31
2023-03-28T23:57:30.259Z,-5.38
2023-03-28T23:59:59.931Z,-5.40
